EDNX weather

OberschleiƟheim Airfield
OberschleiƟheim, Bavaria, Germany

Public forecast

Using degrees Celsius for public forecast. Weather courtesy of forecast.io.

METAR (pilot weather report)

Closest report is Munich Airport, 11.3 nm (20.9 km) NE. Retrieved 2019/03/26 09:20 UTC (26 minutes ago):

EDDM 260920Z 30008KT 270V340 9999 FEW011 FEW018TCU 04/00 Q1028 NOSIG

TAF (pilot weather forecast)

Closest forecast is Munich Airport, 11.3 nm (20.9 km) NE. Retrieved 2019/03/26 06:27 UTC (3 hours ago):

TAF EDDM 260500Z 2606/2712 30005KT 9999 BKN030 BECMG 2608/2610 29012KT BECMG 2617/2619 26005KT PROB30 TEMPO 2703/2708 4000 -SNRA